Terminal Aerodrome Forecast
Issued by NWS

Home | Current Version | Previous Version | Text Only | Print | Product List | Glossary Off
Versions: 1 2 3 4 5 6 7 8 9 10 11 12 13 14 15 16 17 18 19 20 21 22 23 24 25 26 27 28 29 30 31 32 33 34 35

000
FTUS43 KDVN 212321
TAFBRL
TAF
KBRL 212321Z 2200/2224 16011KT P6SM BKN250
     FM220300 17008KT P6SM SCT250
     FM221000 17008KT 6SM BR SCT250
     FM221600 19012KT P6SM FEW250=

USA.gov is the U.S. government's official web portal to all federal, state and local government web resources and services.